sensor_id;sensor_type;location;lat;lon;timestamp;P1;durP1;ratioP1;P2;durP2;ratioP2
57627;SDS011;43451;49.060;10.616;2023-11-19T00:00:16;9.30;;;6.13;;
57627;SDS011;43451;49.060;10.616;2023-11-19T00:02:42;8.88;;;6.57;;
57627;SDS011;43451;49.060;10.616;2023-11-19T00:05:08;7.85;;;6.30;;
57627;SDS011;43451;49.060;10.616;2023-11-19T00:07:37;9.20;;;6.97;;
57627;SDS011;43451;49.060;10.616;2023-11-19T00:12:39;8.50;;;6.93;;
57627;SDS011;43451;49.060;10.616;2023-11-19T00:15:06;7.45;;;6.55;;
57627;SDS011;43451;49.060;10.616;2023-11-19T00:17:46;10.48;;;7.20;;
57627;SDS011;43451;49.060;10.616;2023-11-19T00:20:13;8.57;;;6.90;;
57627;SDS011;43451;49.060;10.616;2023-11-19T00:22:47;10.82;;;7.15;;
57627;SDS011;43451;49.060;10.616;2023-11-19T00:25:16;8.10;;;6.75;;
57627;SDS011;43451;49.060;10.616;2023-11-19T00:27:43;9.00;;;7.32;;
57627;SDS011;43451;49.060;10.616;2023-11-19T00:32:37;11.98;;;7.80;;
57627;SDS011;43451;49.060;10.616;2023-11-19T00:35:05;10.38;;;8.35;;
57627;SDS011;43451;49.060;10.616;2023-11-19T00:37:31;11.27;;;8.30;;
57627;SDS011;43451;49.060;10.616;2023-11-19T00:39:56;10.38;;;7.97;;
57627;SDS011;43451;49.060;10.616;2023-11-19T00:42:23;11.98;;;8.73;;
57627;SDS011;43451;49.060;10.616;2023-11-19T00:44:49;10.63;;;8.45;;
57627;SDS011;43451;49.060;10.616;2023-11-19T00:47:15;11.15;;;8.55;;
57627;SDS011;43451;49.060;10.616;2023-11-19T00:49:40;11.80;;;8.73;;
57627;SDS011;43451;49.060;10.616;2023-11-19T00:52:06;11.27;;;8.75;;
57627;SDS011;43451;49.060;10.616;2023-11-19T00:54:32;11.40;;;8.95;;
57627;SDS011;43451;49.060;10.616;2023-11-19T00:56:57;11.48;;;8.90;;
57627;SDS011;43451;49.060;10.616;2023-11-19T00:59:23;12.18;;;9.07;;
57627;SDS011;43451;49.060;10.616;2023-11-19T01:01:48;10.77;;;9.07;;
57627;SDS011;43451;49.060;10.616;2023-11-19T01:04:14;11.75;;;8.82;;
57627;SDS011;43451;49.060;10.616;2023-11-19T01:06:40;13.25;;;9.15;;
57627;SDS011;43451;49.060;10.616;2023-11-19T01:09:07;12.18;;;9.02;;
57627;SDS011;43451;49.060;10.616;2023-11-19T01:11:33;12.02;;;9.50;;
57627;SDS011;43451;49.060;10.616;2023-11-19T01:13:59;11.52;;;8.50;;
57627;SDS011;43451;49.060;10.616;2023-11-19T01:16:25;12.40;;;9.00;;
57627;SDS011;43451;49.060;10.616;2023-11-19T01:18:51;13.32;;;9.73;;
57627;SDS011;43451;49.060;10.616;2023-11-19T01:21:17;11.32;;;9.00;;
57627;SDS011;43451;49.060;10.616;2023-11-19T01:23:43;12.00;;;9.18;;
57627;SDS011;43451;49.060;10.616;2023-11-19T01:26:11;11.55;;;8.88;;
57627;SDS011;43451;49.060;10.616;2023-11-19T01:28:38;11.52;;;8.90;;
57627;SDS011;43451;49.060;10.616;2023-11-19T01:31:05;13.57;;;9.50;;
57627;SDS011;43451;49.060;10.616;2023-11-19T01:33:31;12.70;;;9.40;;
57627;SDS011;43451;49.060;10.616;2023-11-19T01:35:57;11.65;;;9.10;;
57627;SDS011;43451;49.060;10.616;2023-11-19T01:38:24;12.70;;;9.65;;
57627;SDS011;43451;49.060;10.616;2023-11-19T01:40:49;13.02;;;9.48;;
57627;SDS011;43451;49.060;10.616;2023-11-19T01:43:31;12.73;;;9.23;;
57627;SDS011;43451;49.060;10.616;2023-11-19T01:45:58;11.13;;;8.77;;
57627;SDS011;43451;49.060;10.616;2023-11-19T01:48:24;13.38;;;9.93;;
57627;SDS011;43451;49.060;10.616;2023-11-19T01:50:49;12.02;;;8.90;;
57627;SDS011;43451;49.060;10.616;2023-11-19T01:53:17;12.07;;;9.40;;
57627;SDS011;43451;49.060;10.616;2023-11-19T01:55:43;12.10;;;8.63;;
57627;SDS011;43451;49.060;10.616;2023-11-19T01:58:09;11.88;;;9.20;;
57627;SDS011;43451;49.060;10.616;2023-11-19T02:00:34;12.15;;;8.73;;
57627;SDS011;43451;49.060;10.616;2023-11-19T02:03:00;9.88;;;8.27;;
57627;SDS011;43451;49.060;10.616;2023-11-19T02:05:25;11.30;;;8.55;;
57627;SDS011;43451;49.060;10.616;2023-11-19T02:07:51;12.30;;;9.10;;
57627;SDS011;43451;49.060;10.616;2023-11-19T02:10:17;10.82;;;8.43;;
57627;SDS011;43451;49.060;10.616;2023-11-19T02:12:44;12.60;;;8.95;;
57627;SDS011;43451;49.060;10.616;2023-11-19T02:15:11;13.30;;;8.70;;
57627;SDS011;43451;49.060;10.616;2023-11-19T02:17:36;11.27;;;8.70;;
57627;SDS011;43451;49.060;10.616;2023-11-19T02:20:04;11.20;;;8.90;;
57627;SDS011;43451;49.060;10.616;2023-11-19T02:22:38;13.27;;;9.02;;
57627;SDS011;43451;49.060;10.616;2023-11-19T02:25:04;11.68;;;8.52;;
57627;SDS011;43451;49.060;10.616;2023-11-19T02:27:40;10.70;;;8.30;;
57627;SDS011;43451;49.060;10.616;2023-11-19T02:30:10;10.50;;;8.20;;
57627;SDS011;43451;49.060;10.616;2023-11-19T02:32:37;10.52;;;8.18;;
57627;SDS011;43451;49.060;10.616;2023-11-19T02:35:05;10.77;;;8.35;;
57627;SDS011;43451;49.060;10.616;2023-11-19T02:37:33;10.73;;;8.27;;
57627;SDS011;43451;49.060;10.616;2023-11-19T02:39:59;11.07;;;8.40;;
57627;SDS011;43451;49.060;10.616;2023-11-19T02:42:34;10.95;;;8.20;;
57627;SDS011;43451;49.060;10.616;2023-11-19T02:45:00;11.07;;;8.63;;
57627;SDS011;43451;49.060;10.616;2023-11-19T02:47:27;9.93;;;7.90;;
57627;SDS011;43451;49.060;10.616;2023-11-19T02:49:55;9.88;;;8.15;;
57627;SDS011;43451;49.060;10.616;2023-11-19T02:52:21;10.57;;;8.05;;
57627;SDS011;43451;49.060;10.616;2023-11-19T02:54:46;9.95;;;7.93;;
57627;SDS011;43451;49.060;10.616;2023-11-19T02:57:11;9.90;;;7.75;;
57627;SDS011;43451;49.060;10.616;2023-11-19T02:59:38;10.75;;;8.55;;
57627;SDS011;43451;49.060;10.616;2023-11-19T03:02:07;10.48;;;8.25;;
57627;SDS011;43451;49.060;10.616;2023-11-19T03:04:36;9.10;;;7.40;;
57627;SDS011;43451;49.060;10.616;2023-11-19T03:07:05;9.15;;;7.40;;
57627;SDS011;43451;49.060;10.616;2023-11-19T03:09:32;10.50;;;7.45;;
57627;SDS011;43451;49.060;10.616;2023-11-19T03:11:59;9.10;;;7.35;;
57627;SDS011;43451;49.060;10.616;2023-11-19T03:14:24;9.07;;;7.25;;
57627;SDS011;43451;49.060;10.616;2023-11-19T03:16:50;9.02;;;7.15;;
57627;SDS011;43451;49.060;10.616;2023-11-19T03:19:16;7.85;;;6.63;;
57627;SDS011;43451;49.060;10.616;2023-11-19T03:21:41;9.77;;;7.18;;
57627;SDS011;43451;49.060;10.616;2023-11-19T03:24:07;8.60;;;6.60;;
57627;SDS011;43451;49.060;10.616;2023-11-19T03:26:33;7.38;;;5.95;;
57627;SDS011;43451;49.060;10.616;2023-11-19T03:28:59;8.20;;;6.47;;
57627;SDS011;43451;49.060;10.616;2023-11-19T03:31:24;7.32;;;6.25;;
57627;SDS011;43451;49.060;10.616;2023-11-19T03:33:50;7.53;;;6.38;;
57627;SDS011;43451;49.060;10.616;2023-11-19T03:36:16;7.97;;;6.57;;
57627;SDS011;43451;49.060;10.616;2023-11-19T03:38:42;8.45;;;6.80;;
57627;SDS011;43451;49.060;10.616;2023-11-19T03:41:11;6.68;;;5.95;;
57627;SDS011;43451;49.060;10.616;2023-11-19T03:43:38;7.60;;;6.22;;
57627;SDS011;43451;49.060;10.616;2023-11-19T03:46:04;7.43;;;5.90;;
57627;SDS011;43451;49.060;10.616;2023-11-19T03:48:30;6.75;;;5.43;;
57627;SDS011;43451;49.060;10.616;2023-11-19T03:50:56;7.00;;;5.90;;
57627;SDS011;43451;49.060;10.616;2023-11-19T03:53:22;8.10;;;5.80;;
57627;SDS011;43451;49.060;10.616;2023-11-19T03:55:49;7.07;;;6.18;;
57627;SDS011;43451;49.060;10.616;2023-11-19T03:58:15;8.05;;;6.07;;
57627;SDS011;43451;49.060;10.616;2023-11-19T04:00:40;6.55;;;5.80;;
57627;SDS011;43451;49.060;10.616;2023-11-19T04:03:06;6.57;;;5.70;;
57627;SDS011;43451;49.060;10.616;2023-11-19T04:05:31;6.82;;;5.57;;
57627;SDS011;43451;49.060;10.616;2023-11-19T04:07:57;7.63;;;5.80;;
57627;SDS011;43451;49.060;10.616;2023-11-19T04:10:22;6.70;;;5.95;;
57627;SDS011;43451;49.060;10.616;2023-11-19T04:12:48;7.32;;;6.25;;
57627;SDS011;43451;49.060;10.616;2023-11-19T04:15:14;6.93;;;5.93;;
57627;SDS011;43451;49.060;10.616;2023-11-19T04:17:39;7.80;;;5.70;;
57627;SDS011;43451;49.060;10.616;2023-11-19T04:20:05;7.15;;;5.95;;
57627;SDS011;43451;49.060;10.616;2023-11-19T04:22:31;7.78;;;5.72;;
57627;SDS011;43451;49.060;10.616;2023-11-19T04:24:57;8.23;;;6.00;;
57627;SDS011;43451;49.060;10.616;2023-11-19T04:27:22;7.65;;;5.65;;
57627;SDS011;43451;49.060;10.616;2023-11-19T04:29:48;6.28;;;5.20;;
57627;SDS011;43451;49.060;10.616;2023-11-19T04:32:15;6.20;;;5.25;;
57627;SDS011;43451;49.060;10.616;2023-11-19T04:34:41;6.85;;;5.65;;
57627;SDS011;43451;49.060;10.616;2023-11-19T04:37:06;6.30;;;5.60;;
57627;SDS011;43451;49.060;10.616;2023-11-19T04:39:32;6.53;;;5.53;;
57627;SDS011;43451;49.060;10.616;2023-11-19T04:41:57;7.60;;;6.00;;
57627;SDS011;43451;49.060;10.616;2023-11-19T04:44:23;7.63;;;5.60;;
57627;SDS011;43451;49.060;10.616;2023-11-19T04:46:48;6.57;;;5.38;;
57627;SDS011;43451;49.060;10.616;2023-11-19T04:49:14;6.95;;;5.55;;
57627;SDS011;43451;49.060;10.616;2023-11-19T04:51:40;5.80;;;5.10;;
57627;SDS011;43451;49.060;10.616;2023-11-19T04:54:10;5.78;;;4.88;;
57627;SDS011;43451;49.060;10.616;2023-11-19T04:56:36;5.88;;;4.97;;
57627;SDS011;43451;49.060;10.616;2023-11-19T04:59:02;4.75;;;3.92;;
57627;SDS011;43451;49.060;10.616;2023-11-19T05:01:28;5.65;;;3.97;;
57627;SDS011;43451;49.060;10.616;2023-11-19T05:03:55;5.03;;;3.83;;
57627;SDS011;43451;49.060;10.616;2023-11-19T05:06:27;4.57;;;3.83;;
57627;SDS011;43451;49.060;10.616;2023-11-19T05:08:59;3.38;;;3.08;;
57627;SDS011;43451;49.060;10.616;2023-11-19T05:11:33;2.90;;;2.67;;
57627;SDS011;43451;49.060;10.616;2023-11-19T05:13:59;2.90;;;2.60;;
57627;SDS011;43451;49.060;10.616;2023-11-19T05:16:25;2.88;;;2.60;;
57627;SDS011;43451;49.060;10.616;2023-11-19T05:18:51;2.90;;;2.60;;
57627;SDS011;43451;49.060;10.616;2023-11-19T05:21:17;2.60;;;2.40;;
57627;SDS011;43451;49.060;10.616;2023-11-19T05:23:42;3.00;;;2.67;;
57627;SDS011;43451;49.060;10.616;2023-11-19T05:29:03;3.30;;;3.00;;
57627;SDS011;43451;49.060;10.616;2023-11-19T05:31:30;3.83;;;3.00;;
57627;SDS011;43451;49.060;10.616;2023-11-19T05:33:55;3.33;;;3.00;;
57627;SDS011;43451;49.060;10.616;2023-11-19T05:36:21;3.33;;;2.97;;
57627;SDS011;43451;49.060;10.616;2023-11-19T05:38:46;2.75;;;2.55;;
57627;SDS011;43451;49.060;10.616;2023-11-19T05:41:12;3.55;;;3.00;;
57627;SDS011;43451;49.060;10.616;2023-11-19T05:43:37;3.10;;;2.80;;
57627;SDS011;43451;49.060;10.616;2023-11-19T05:46:05;2.97;;;2.70;;
57627;SDS011;43451;49.060;10.616;2023-11-19T05:48:31;4.03;;;2.40;;
57627;SDS011;43451;49.060;10.616;2023-11-19T05:50:57;2.20;;;2.00;;
57627;SDS011;43451;49.060;10.616;2023-11-19T05:53:23;3.47;;;2.08;;
57627;SDS011;43451;49.060;10.616;2023-11-19T05:55:48;2.30;;;2.10;;
57627;SDS011;43451;49.060;10.616;2023-11-19T05:58:19;2.10;;;2.00;;
57627;SDS011;43451;49.060;10.616;2023-11-19T06:00:50;2.50;;;2.30;;
57627;SDS011;43451;49.060;10.616;2023-11-19T06:03:16;2.45;;;2.00;;
57627;SDS011;43451;49.060;10.616;2023-11-19T06:05:43;1.80;;;1.67;;
57627;SDS011;43451;49.060;10.616;2023-11-19T06:08:10;1.70;;;1.60;;
57627;SDS011;43451;49.060;10.616;2023-11-19T06:10:38;1.52;;;0.68;;
57627;SDS011;43451;49.060;10.616;2023-11-19T06:13:06;1.23;;;0.75;;
57627;SDS011;43451;49.060;10.616;2023-11-19T06:15:32;0.50;;;0.40;;
57627;SDS011;43451;49.060;10.616;2023-11-19T06:17:58;0.40;;;0.40;;
57627;SDS011;43451;49.060;10.616;2023-11-19T06:20:28;0.85;;;0.40;;
57627;SDS011;43451;49.060;10.616;2023-11-19T06:22:57;0.40;;;0.40;;
57627;SDS011;43451;49.060;10.616;2023-11-19T06:25:23;0.40;;;0.40;;
57627;SDS011;43451;49.060;10.616;2023-11-19T06:30:17;0.40;;;0.40;;
57627;SDS011;43451;49.060;10.616;2023-11-19T06:32:43;0.60;;;0.50;;
57627;SDS011;43451;49.060;10.616;2023-11-19T06:35:09;0.30;;;0.30;;
57627;SDS011;43451;49.060;10.616;2023-11-19T06:37:35;0.47;;;0.47;;
57627;SDS011;43451;49.060;10.616;2023-11-19T06:40:01;0.40;;;0.40;;
57627;SDS011;43451;49.060;10.616;2023-11-19T06:42:27;0.45;;;0.30;;
57627;SDS011;43451;49.060;10.616;2023-11-19T06:44:52;0.57;;;0.43;;
57627;SDS011;43451;49.060;10.616;2023-11-19T06:47:18;0.55;;;0.40;;
57627;SDS011;43451;49.060;10.616;2023-11-19T06:49:43;0.40;;;0.40;;
57627;SDS011;43451;49.060;10.616;2023-11-19T06:52:09;0.40;;;0.30;;
57627;SDS011;43451;49.060;10.616;2023-11-19T06:54:35;0.80;;;0.50;;
57627;SDS011;43451;49.060;10.616;2023-11-19T06:57:03;0.40;;;0.40;;
57627;SDS011;43451;49.060;10.616;2023-11-19T06:59:30;0.40;;;0.40;;
57627;SDS011;43451;49.060;10.616;2023-11-19T07:01:56;0.40;;;0.40;;
57627;SDS011;43451;49.060;10.616;2023-11-19T07:04:21;1.48;;;0.50;;
57627;SDS011;43451;49.060;10.616;2023-11-19T07:06:47;0.77;;;0.63;;
57627;SDS011;43451;49.060;10.616;2023-11-19T07:09:13;0.75;;;0.55;;
57627;SDS011;43451;49.060;10.616;2023-11-19T07:11:39;0.50;;;0.50;;
57627;SDS011;43451;49.060;10.616;2023-11-19T07:14:06;0.80;;;0.50;;
57627;SDS011;43451;49.060;10.616;2023-11-19T07:16:33;0.70;;;0.50;;
57627;SDS011;43451;49.060;10.616;2023-11-19T07:19:05;0.52;;;0.52;;
57627;SDS011;43451;49.060;10.616;2023-11-19T07:21:31;1.67;;;0.50;;
57627;SDS011;43451;49.060;10.616;2023-11-19T07:23:58;1.00;;;0.50;;
57627;SDS011;43451;49.060;10.616;2023-11-19T07:26:24;2.58;;;0.63;;
57627;SDS011;43451;49.060;10.616;2023-11-19T07:28:50;0.50;;;0.50;;
57627;SDS011;43451;49.060;10.616;2023-11-19T07:31:16;0.50;;;0.50;;
57627;SDS011;43451;49.060;10.616;2023-11-19T07:33:46;0.50;;;0.50;;
57627;SDS011;43451;49.060;10.616;2023-11-19T07:36:12;0.50;;;0.50;;
57627;SDS011;43451;49.060;10.616;2023-11-19T07:38:38;1.10;;;0.60;;
57627;SDS011;43451;49.060;10.616;2023-11-19T07:41:04;0.40;;;0.40;;
57627;SDS011;43451;49.060;10.616;2023-11-19T07:43:30;0.40;;;0.40;;
57627;SDS011;43451;49.060;10.616;2023-11-19T07:45:56;0.85;;;0.60;;
57627;SDS011;43451;49.060;10.616;2023-11-19T07:48:24;0.50;;;0.50;;
57627;SDS011;43451;49.060;10.616;2023-11-19T07:50:50;1.33;;;0.52;;
57627;SDS011;43451;49.060;10.616;2023-11-19T07:53:16;2.42;;;0.50;;
57627;SDS011;43451;49.060;10.616;2023-11-19T07:55:41;0.57;;;0.50;;
57627;SDS011;43451;49.060;10.616;2023-11-19T07:58:07;0.50;;;0.50;;
57627;SDS011;43451;49.060;10.616;2023-11-19T08:00:32;0.75;;;0.60;;
57627;SDS011;43451;49.060;10.616;2023-11-19T08:02:57;0.60;;;0.60;;
57627;SDS011;43451;49.060;10.616;2023-11-19T08:05:23;0.50;;;0.50;;
57627;SDS011;43451;49.060;10.616;2023-11-19T08:07:50;1.20;;;0.70;;
57627;SDS011;43451;49.060;10.616;2023-11-19T08:10:18;1.63;;;0.60;;
57627;SDS011;43451;49.060;10.616;2023-11-19T08:12:44;2.10;;;0.60;;
57627;SDS011;43451;49.060;10.616;2023-11-19T08:15:10;0.57;;;0.55;;
57627;SDS011;43451;49.060;10.616;2023-11-19T08:17:36;0.68;;;0.55;;
57627;SDS011;43451;49.060;10.616;2023-11-19T08:20:02;0.50;;;0.40;;
57627;SDS011;43451;49.060;10.616;2023-11-19T08:24:55;0.90;;;0.68;;
57627;SDS011;43451;49.060;10.616;2023-11-19T08:27:21;0.60;;;0.60;;
57627;SDS011;43451;49.060;10.616;2023-11-19T08:29:54;1.00;;;0.60;;
57627;SDS011;43451;49.060;10.616;2023-11-19T08:32:26;1.17;;;0.60;;
57627;SDS011;43451;49.060;10.616;2023-11-19T08:34:52;2.00;;;0.65;;
57627;SDS011;43451;49.060;10.616;2023-11-19T08:37:18;0.60;;;0.50;;
57627;SDS011;43451;49.060;10.616;2023-11-19T08:39:46;0.63;;;0.60;;
57627;SDS011;43451;49.060;10.616;2023-11-19T08:42:12;0.70;;;0.63;;
57627;SDS011;43451;49.060;10.616;2023-11-19T08:44:38;0.98;;;0.50;;
57627;SDS011;43451;49.060;10.616;2023-11-19T08:47:03;0.47;;;0.47;;
57627;SDS011;43451;49.060;10.616;2023-11-19T08:49:29;1.40;;;0.57;;
57627;SDS011;43451;49.060;10.616;2023-11-19T08:51:55;0.40;;;0.40;;
57627;SDS011;43451;49.060;10.616;2023-11-19T08:54:20;1.05;;;0.40;;
57627;SDS011;43451;49.060;10.616;2023-11-19T08:56:48;0.30;;;0.30;;
57627;SDS011;43451;49.060;10.616;2023-11-19T08:59:13;0.40;;;0.40;;
57627;SDS011;43451;49.060;10.616;2023-11-19T09:01:40;0.40;;;0.40;;
57627;SDS011;43451;49.060;10.616;2023-11-19T09:04:06;1.45;;;0.50;;
57627;SDS011;43451;49.060;10.616;2023-11-19T09:06:32;0.50;;;0.50;;
57627;SDS011;43451;49.060;10.616;2023-11-19T09:08:57;0.30;;;0.30;;
57627;SDS011;43451;49.060;10.616;2023-11-19T09:11:27;1.00;;;0.50;;
57627;SDS011;43451;49.060;10.616;2023-11-19T09:13:52;0.52;;;0.52;;
57627;SDS011;43451;49.060;10.616;2023-11-19T09:16:18;1.67;;;0.50;;
57627;SDS011;43451;49.060;10.616;2023-11-19T09:18:44;1.75;;;0.50;;
57627;SDS011;43451;49.060;10.616;2023-11-19T09:21:12;0.43;;;0.40;;
57627;SDS011;43451;49.060;10.616;2023-11-19T09:23:38;2.05;;;0.50;;
57627;SDS011;43451;49.060;10.616;2023-11-19T09:26:05;0.50;;;0.50;;
57627;SDS011;43451;49.060;10.616;2023-11-19T09:28:31;1.45;;;0.50;;
57627;SDS011;43451;49.060;10.616;2023-11-19T09:30:57;1.75;;;0.50;;
57627;SDS011;43451;49.060;10.616;2023-11-19T09:33:24;0.50;;;0.40;;
57627;SDS011;43451;49.060;10.616;2023-11-19T09:35:49;0.57;;;0.30;;
57627;SDS011;43451;49.060;10.616;2023-11-19T09:38:16;0.40;;;0.40;;
57627;SDS011;43451;49.060;10.616;2023-11-19T09:40:42;0.70;;;0.40;;
57627;SDS011;43451;49.060;10.616;2023-11-19T09:43:08;1.42;;;0.50;;
57627;SDS011;43451;49.060;10.616;2023-11-19T09:46:09;1.33;;;0.40;;
57627;SDS011;43451;49.060;10.616;2023-11-19T09:48:32;1.30;;;0.50;;
57627;SDS011;43451;49.060;10.616;2023-11-19T09:50:58;1.90;;;0.40;;
57627;SDS011;43451;49.060;10.616;2023-11-19T09:53:25;0.57;;;0.50;;
57627;SDS011;43451;49.060;10.616;2023-11-19T09:55:51;0.68;;;0.57;;
57627;SDS011;43451;49.060;10.616;2023-11-19T09:58:18;1.17;;;0.52;;
57627;SDS011;43451;49.060;10.616;2023-11-19T10:00:43;0.95;;;0.50;;
57627;SDS011;43451;49.060;10.616;2023-11-19T10:03:09;1.05;;;0.60;;
57627;SDS011;43451;49.060;10.616;2023-11-19T10:05:37;1.17;;;0.38;;
57627;SDS011;43451;49.060;10.616;2023-11-19T10:08:04;2.25;;;1.05;;
57627;SDS011;43451;49.060;10.616;2023-11-19T10:10:30;1.00;;;0.50;;
57627;SDS011;43451;49.060;10.616;2023-11-19T10:12:55;1.10;;;0.60;;
57627;SDS011;43451;49.060;10.616;2023-11-19T10:15:24;1.67;;;0.80;;
57627;SDS011;43451;49.060;10.616;2023-11-19T10:17:52;0.50;;;0.50;;
57627;SDS011;43451;49.060;10.616;2023-11-19T10:20:20;1.30;;;0.60;;
57627;SDS011;43451;49.060;10.616;2023-11-19T10:22:46;0.50;;;0.50;;
57627;SDS011;43451;49.060;10.616;2023-11-19T10:25:24;1.45;;;0.80;;
57627;SDS011;43451;49.060;10.616;2023-11-19T10:27:54;2.40;;;0.65;;
57627;SDS011;43451;49.060;10.616;2023-11-19T10:30:21;1.20;;;0.80;;
57627;SDS011;43451;49.060;10.616;2023-11-19T10:33:07;1.42;;;0.70;;
57627;SDS011;43451;49.060;10.616;2023-11-19T10:35:34;1.42;;;0.60;;
57627;SDS011;43451;49.060;10.616;2023-11-19T10:38:01;1.90;;;0.70;;
57627;SDS011;43451;49.060;10.616;2023-11-19T10:40:40;1.58;;;0.60;;
57627;SDS011;43451;49.060;10.616;2023-11-19T10:43:06;2.53;;;0.70;;
57627;SDS011;43451;49.060;10.616;2023-11-19T10:45:35;1.95;;;0.60;;
57627;SDS011;43451;49.060;10.616;2023-11-19T10:48:02;0.82;;;0.60;;
57627;SDS011;43451;49.060;10.616;2023-11-19T10:50:35;2.28;;;0.70;;
57627;SDS011;43451;49.060;10.616;2023-11-19T10:53:03;2.17;;;0.60;;
57627;SDS011;43451;49.060;10.616;2023-11-19T10:55:30;3.45;;;0.70;;
57627;SDS011;43451;49.060;10.616;2023-11-19T10:58:06;2.50;;;0.60;;
57627;SDS011;43451;49.060;10.616;2023-11-19T11:00:44;1.70;;;0.80;;
57627;SDS011;43451;49.060;10.616;2023-11-19T11:03:16;3.13;;;0.80;;
57627;SDS011;43451;49.060;10.616;2023-11-19T11:05:45;1.00;;;0.70;;
57627;SDS011;43451;49.060;10.616;2023-11-19T11:08:12;2.20;;;0.82;;
57627;SDS011;43451;49.060;10.616;2023-11-19T11:10:46;2.90;;;0.90;;
57627;SDS011;43451;49.060;10.616;2023-11-19T11:13:20;1.65;;;0.90;;
57627;SDS011;43451;49.060;10.616;2023-11-19T11:15:48;3.03;;;0.77;;
57627;SDS011;43451;49.060;10.616;2023-11-19T11:18:14;8.23;;;1.02;;
57627;SDS011;43451;49.060;10.616;2023-11-19T11:20:40;3.05;;;0.90;;
57627;SDS011;43451;49.060;10.616;2023-11-19T11:31:31;0.75;;;0.60;;
57627;SDS011;43451;49.060;10.616;2023-11-19T11:39:30;1.40;;;0.60;;
57627;SDS011;43451;49.060;10.616;2023-11-19T11:50:19;2.38;;;0.70;;
57627;SDS011;43451;49.060;10.616;2023-11-19T11:58:08;11.82;;;1.90;;
57627;SDS011;43451;49.060;10.616;2023-11-19T12:00:38;1.52;;;0.60;;
57627;SDS011;43451;49.060;10.616;2023-11-19T12:03:06;2.20;;;0.70;;
57627;SDS011;43451;49.060;10.616;2023-11-19T12:05:33;2.38;;;0.90;;
57627;SDS011;43451;49.060;10.616;2023-11-19T12:08:04;1.65;;;0.57;;
57627;SDS011;43451;49.060;10.616;2023-11-19T12:10:32;4.18;;;0.80;;
57627;SDS011;43451;49.060;10.616;2023-11-19T12:13:08;2.72;;;0.80;;
57627;SDS011;43451;49.060;10.616;2023-11-19T12:15:54;1.85;;;0.80;;
57627;SDS011;43451;49.060;10.616;2023-11-19T12:18:31;1.55;;;0.75;;
57627;SDS011;43451;49.060;10.616;2023-11-19T12:20:58;2.90;;;0.70;;
57627;SDS011;43451;49.060;10.616;2023-11-19T12:23:30;2.10;;;0.60;;
57627;SDS011;43451;49.060;10.616;2023-11-19T12:25:57;1.65;;;0.70;;
57627;SDS011;43451;49.060;10.616;2023-11-19T12:28:23;3.35;;;0.70;;
57627;SDS011;43451;49.060;10.616;2023-11-19T12:30:51;1.63;;;0.80;;
57627;SDS011;43451;49.060;10.616;2023-11-19T12:33:18;1.90;;;0.60;;
57627;SDS011;43451;49.060;10.616;2023-11-19T12:35:45;2.58;;;0.68;;
57627;SDS011;43451;49.060;10.616;2023-11-19T12:38:25;1.42;;;0.60;;
57627;SDS011;43451;49.060;10.616;2023-11-19T12:41:12;1.35;;;0.60;;
57627;SDS011;43451;49.060;10.616;2023-11-19T12:43:37;0.82;;;0.50;;
57627;SDS011;43451;49.060;10.616;2023-11-19T12:46:16;3.15;;;0.77;;
57627;SDS011;43451;49.060;10.616;2023-11-19T12:48:46;1.65;;;0.73;;
57627;SDS011;43451;49.060;10.616;2023-11-19T12:51:12;2.95;;;0.93;;
57627;SDS011;43451;49.060;10.616;2023-11-19T12:53:50;1.50;;;0.70;;
57627;SDS011;43451;49.060;10.616;2023-11-19T12:56:19;2.17;;;0.75;;
57627;SDS011;43451;49.060;10.616;2023-11-19T12:58:48;1.38;;;0.70;;
57627;SDS011;43451;49.060;10.616;2023-11-19T13:01:18;2.45;;;0.80;;
57627;SDS011;43451;49.060;10.616;2023-11-19T13:03:44;1.25;;;0.65;;
57627;SDS011;43451;49.060;10.616;2023-11-19T13:06:11;1.65;;;0.70;;
57627;SDS011;43451;49.060;10.616;2023-11-19T13:11:06;1.45;;;0.70;;
57627;SDS011;43451;49.060;10.616;2023-11-19T13:13:33;2.90;;;0.70;;
57627;SDS011;43451;49.060;10.616;2023-11-19T13:16:37;2.05;;;0.70;;
57627;SDS011;43451;49.060;10.616;2023-11-19T13:19:03;3.42;;;0.95;;
57627;SDS011;43451;49.060;10.616;2023-11-19T13:21:30;1.67;;;0.60;;
57627;SDS011;43451;49.060;10.616;2023-11-19T13:23:56;1.85;;;0.75;;
57627;SDS011;43451;49.060;10.616;2023-11-19T13:26:21;1.73;;;0.75;;
57627;SDS011;43451;49.060;10.616;2023-11-19T13:28:47;1.08;;;0.50;;
57627;SDS011;43451;49.060;10.616;2023-11-19T13:31:13;1.25;;;0.60;;
57627;SDS011;43451;49.060;10.616;2023-11-19T13:33:39;2.03;;;0.70;;
57627;SDS011;43451;49.060;10.616;2023-11-19T13:36:04;2.83;;;0.70;;
57627;SDS011;43451;49.060;10.616;2023-11-19T13:38:33;2.17;;;0.60;;
57627;SDS011;43451;49.060;10.616;2023-11-19T13:41:00;2.45;;;0.63;;
57627;SDS011;43451;49.060;10.616;2023-11-19T13:43:26;3.38;;;0.63;;
57627;SDS011;43451;49.060;10.616;2023-11-19T13:45:54;3.25;;;0.77;;
57627;SDS011;43451;49.060;10.616;2023-11-19T13:48:20;2.08;;;0.80;;
57627;SDS011;43451;49.060;10.616;2023-11-19T13:50:45;1.08;;;0.70;;
57627;SDS011;43451;49.060;10.616;2023-11-19T13:53:11;1.75;;;0.73;;
57627;SDS011;43451;49.060;10.616;2023-11-19T13:55:36;1.98;;;0.63;;
57627;SDS011;43451;49.060;10.616;2023-11-19T13:58:02;3.30;;;0.68;;
57627;SDS011;43451;49.060;10.616;2023-11-19T14:00:27;4.05;;;0.70;;
57627;SDS011;43451;49.060;10.616;2023-11-19T14:02:53;1.10;;;0.70;;
57627;SDS011;43451;49.060;10.616;2023-11-19T14:05:19;1.80;;;0.60;;
57627;SDS011;43451;49.060;10.616;2023-11-19T14:07:44;1.10;;;0.60;;
57627;SDS011;43451;49.060;10.616;2023-11-19T14:10:14;2.17;;;0.60;;
57627;SDS011;43451;49.060;10.616;2023-11-19T14:12:40;1.45;;;0.60;;
57627;SDS011;43451;49.060;10.616;2023-11-19T14:15:06;3.67;;;0.70;;
57627;SDS011;43451;49.060;10.616;2023-11-19T14:20:00;1.58;;;0.60;;
57627;SDS011;43451;49.060;10.616;2023-11-19T14:22:28;1.88;;;0.70;;
57627;SDS011;43451;49.060;10.616;2023-11-19T14:24:55;1.58;;;0.60;;
57627;SDS011;43451;49.060;10.616;2023-11-19T14:27:21;0.90;;;0.55;;
57627;SDS011;43451;49.060;10.616;2023-11-19T14:29:47;1.25;;;0.60;;
57627;SDS011;43451;49.060;10.616;2023-11-19T14:32:12;1.80;;;0.93;;
57627;SDS011;43451;49.060;10.616;2023-11-19T14:34:38;1.83;;;0.65;;
57627;SDS011;43451;49.060;10.616;2023-11-19T14:37:04;1.17;;;0.60;;
57627;SDS011;43451;49.060;10.616;2023-11-19T14:39:29;2.20;;;0.73;;
57627;SDS011;43451;49.060;10.616;2023-11-19T14:41:56;2.00;;;0.82;;
57627;SDS011;43451;49.060;10.616;2023-11-19T14:44:26;3.40;;;0.88;;
57627;SDS011;43451;49.060;10.616;2023-11-19T14:46:52;2.10;;;0.80;;
57627;SDS011;43451;49.060;10.616;2023-11-19T14:49:18;1.52;;;0.70;;
57627;SDS011;43451;49.060;10.616;2023-11-19T14:51:43;1.55;;;0.77;;
57627;SDS011;43451;49.060;10.616;2023-11-19T14:54:09;3.83;;;0.70;;
57627;SDS011;43451;49.060;10.616;2023-11-19T14:56:34;2.40;;;0.77;;
57627;SDS011;43451;49.060;10.616;2023-11-19T14:59:00;2.53;;;0.60;;
57627;SDS011;43451;49.060;10.616;2023-11-19T15:01:25;1.38;;;0.75;;
57627;SDS011;43451;49.060;10.616;2023-11-19T15:03:53;2.97;;;0.60;;
57627;SDS011;43451;49.060;10.616;2023-11-19T15:06:22;1.00;;;0.70;;
57627;SDS011;43451;49.060;10.616;2023-11-19T15:08:49;1.52;;;0.70;;
57627;SDS011;43451;49.060;10.616;2023-11-19T15:11:14;3.42;;;0.73;;
57627;SDS011;43451;49.060;10.616;2023-11-19T15:13:40;3.22;;;0.77;;
57627;SDS011;43451;49.060;10.616;2023-11-19T15:16:07;2.75;;;0.70;;
57627;SDS011;43451;49.060;10.616;2023-11-19T15:18:36;1.70;;;0.68;;